»·PEaware :: SWA1 KLAX-KLAS

SWA1 :: KLAX-KLAS

FLIGHT INFORMATION

Flight Status: Arrived
Operator:
Southwest Airlines
More flights by this operator :: More flights under this callsign
Pilot: Jason G. (14075)
Aircraft: BOEING 737-800
(B738)
More flights by this aircraft type
Origin: KLAX Los Angeles Intl
United States
Destination: KLAS McCarran Intl
United States
More flights between these airports :: More routes between these airports
Route: +OSHNN8 MISEN KEPEC6
File this flight plan on PilotEdge
Remarks: / L
Altitude:
(Current/Filed)
26,000ft
Speed:
(Current/Filed)
460kts
Departed: 09-Oct-18 08:28 PM
Arrived: 09-Oct-18 09:33 PM
Distance/Time
Traveled:
205nm/1:05
Distance/Time
To Go:
Arrived

Flight Plot

Page will automatically refresh every two minutes.

Flight plan parsing failed; only flown route is shown


Map Options




Map Legend


Flown Route
Filed Route
Departure Airport
Arrival Airport
Navaid (VOR, NDB)
Fix

Horizontal Profiles

Position Reports

Time Latitude Longitude Heading Altitude Ground
Speed
09-Oct-18 20:12 33.941651 -118.400245 83 116ft 0kts
09-Oct-18 20:13 33.941651 -118.400245 83 116ft 0kts
09-Oct-18 20:14 33.941651 -118.400245 83 116ft 0kts
09-Oct-18 20:15 33.941651 -118.400245 83 116ft 0kts
09-Oct-18 20:16 33.941651 -118.400245 83 116ft 0kts
09-Oct-18 20:17 33.941651 -118.400245 83 116ft 0kts
09-Oct-18 20:18 33.941651 -118.400245 83 116ft 0kts
09-Oct-18 20:19 33.941651 -118.400245 83 116ft 0kts
09-Oct-18 20:20 33.941618 -118.400558 83 116ft 2kts
09-Oct-18 20:21 33.941863 -118.400905 173 116ft 0kts
09-Oct-18 20:22 33.942016 -118.400927 173 116ft 0kts
09-Oct-18 20:23 33.942016 -118.400927 173 116ft 0kts
09-Oct-18 20:24 33.942016 -118.400927 173 116ft 0kts
09-Oct-18 20:25 33.939785 -118.400614 171 117ft 12kts
09-Oct-18 20:26 33.939300 -118.394828 83 107ft 26kts
09-Oct-18 20:27 33.940200 -118.385793 79 102ft 24kts
09-Oct-18 20:28 33.940270 -118.383337 173 99ft 0kts
09-Oct-18 20:29 33.940077 -118.383311 175 99ft 9kts
09-Oct-18 20:30 33.936549 -118.413097 263 527ft 167kts
09-Oct-18 20:31 33.930996 -118.468737 263 1698ft 183kts
09-Oct-18 20:32 33.925453 -118.525675 263 4462ft 164kts
09-Oct-18 20:33 33.906430 -118.548558 126 6439ft 158kts
09-Oct-18 20:34 33.874727 -118.520228 200 7688ft 198kts
09-Oct-18 20:35 33.822198 -118.545149 203 10239ft 215kts
09-Oct-18 20:36 33.761640 -118.537594 170 11877ft 244kts
09-Oct-18 20:37 33.693958 -118.501626 128 13371ft 322kts
09-Oct-18 20:38 33.660090 -118.400896 108 15444ft 360kts
09-Oct-18 20:39 33.641628 -118.294729 87 17907ft 374kts
09-Oct-18 20:40 33.663077 -118.175536 53 20394ft 381kts
09-Oct-18 20:41 33.739843 -118.093091 32 22719ft 387kts
09-Oct-18 20:42 33.823214 -118.018602 32 24779ft 397kts
09-Oct-18 20:43 33.911262 -117.939673 32 24896ft 431kts
09-Oct-18 20:44 33.991995 -117.866101 33 24895ft 444kts
09-Oct-18 20:45 34.101400 -117.761067 44 24908ft 449kts
09-Oct-18 20:46 34.161198 -117.673015 47 24905ft 451kts
09-Oct-18 20:47 34.218575 -117.587201 47 24908ft 451kts
09-Oct-18 20:48 34.286480 -117.485667 47 24905ft 451kts
09-Oct-18 20:49 34.368403 -117.362964 47 24897ft 450kts
09-Oct-18 20:50 34.439600 -117.256095 47 24891ft 450kts
09-Oct-18 20:51 34.500819 -117.163978 47 24892ft 450kts
09-Oct-18 20:52 34.584301 -117.039919 46 24867ft 452kts
09-Oct-18 20:53 34.650896 -116.942854 46 24834ft 455kts
09-Oct-18 20:54 34.720768 -116.840712 46 24808ft 457kts
09-Oct-18 20:55 34.798227 -116.727104 46 24808ft 457kts
09-Oct-18 20:56 34.882788 -116.615072 34 24808ft 444kts
09-Oct-18 20:57 34.971796 -116.529235 33 24815ft 421kts
09-Oct-18 20:58 35.058144 -116.445797 33 24832ft 426kts
09-Oct-18 20:59 35.131827 -116.366983 40 23851ft 422kts
09-Oct-18 21:00 35.204577 -116.276043 42 22019ft 426kts
09-Oct-18 21:01 35.274950 -116.187583 42 20537ft 404kts
09-Oct-18 21:02 35.348926 -116.094437 42 19114ft 397kts
09-Oct-18 21:03 35.423270 -116.000561 43 17950ft 393kts
09-Oct-18 21:04 35.494235 -115.910640 43 16586ft 366kts
09-Oct-18 21:05 35.561282 -115.825517 43 15289ft 373kts
09-Oct-18 21:06 35.629519 -115.738611 44 13943ft 346kts
09-Oct-18 21:07 35.692559 -115.658095 44 13054ft 326kts
09-Oct-18 21:08 35.758431 -115.583665 20 13045ft 321kts
09-Oct-18 21:09 35.843374 -115.569712 358 13032ft 314kts
09-Oct-18 21:10 35.935666 -115.564431 4 13003ft 316kts
09-Oct-18 21:11 35.988288 -115.514381 64 12517ft 317kts
09-Oct-18 21:12 36.017758 -115.421353 68 11468ft 280kts
09-Oct-18 21:13 36.030173 -115.332677 98 10520ft 259kts
09-Oct-18 21:14 36.024422 -115.265142 97 9742ft 270kts
09-Oct-18 21:15 36.017679 -115.176785 97 8926ft 258kts
09-Oct-18 21:16 36.012112 -115.096691 98 8152ft 226kts
09-Oct-18 21:17 36.007477 -115.023590 98 8028ft 222kts
09-Oct-18 21:18 36.003182 -114.952889 99 8028ft 220kts
09-Oct-18 21:19 35.998714 -114.881398 98 8034ft 249kts
09-Oct-18 21:20 35.993991 -114.805770 98 8030ft 250kts
09-Oct-18 21:21 35.988617 -114.723794 99 8026ft 223kts
09-Oct-18 21:22 35.983941 -114.652815 99 8029ft 205kts
09-Oct-18 21:23 36.015521 -114.602289 6 8038ft 214kts
09-Oct-18 21:24 36.061709 -114.625182 291 8058ft 176kts
09-Oct-18 21:25 36.069975 -114.681706 269 8030ft 167kts
09-Oct-18 21:26 36.073103 -114.736354 264 8011ft 154kts
09-Oct-18 21:27 36.073254 -114.783775 263 7504ft 144kts
09-Oct-18 21:28 36.073338 -114.832232 263 6777ft 145kts
09-Oct-18 21:29 36.073408 -114.880731 263 6014ft 146kts
09-Oct-18 21:30 36.073492 -114.928046 263 5257ft 147kts
09-Oct-18 21:31 36.073567 -114.974541 264 4509ft 147kts
09-Oct-18 21:32 36.073624 -115.022848 264 3733ft 146kts
09-Oct-18 21:33 36.073660 -115.072571 264 2936ft 143kts
09-Oct-18 21:34 36.073661 -115.121116 265 2177ft 141kts
09-Oct-18 21:35 36.074636 -115.145765 297 2100ft 3kts
09-Oct-18 21:36 36.077670 -115.146895 301 2101ft 16kts
09-Oct-18 21:37 36.078004 -115.150060 304 2112ft 6kts
09-Oct-18 21:38 36.080742 -115.151126 10 2110ft 11kts
09-Oct-18 21:39 36.082303 -115.150922 359 2105ft 0kts

Navigation Log

Ident Type
Flight plan parsing failed, navigation log unavailable